Sea Dolphin C — V7XL9 — position and weather

sailwx.info

Track history (hours):
 
Tides and Currents Weather Stations Pressure Air Temp Water Temp Dewpoint Dewpoint Depression Visibility Wind Speed Wind Dir Waves Ship Positions

Sea Dolphin C

Last reported at 2016-Jun-01 06:33 UTC. Time now 2016-Jun-01 07:32 UTC.
Position N 56°13' E 011°18'.

Length 181 m; draft 6.1 m.

Type: Cargo ship. MMSI: 538004513.

Date/timePositionNaut miles runAvg speedWind from/ knotsBaromVisibWave heightAir tempDewpointWater temp
2016-Jun-01 06:33N 56°13' E 011°18'1312.9
2016-Jun-01 05:33N 56°24' E 011°29'1313.1
2016-Jun-01 04:32N 56°36' E 011°41'1611.8
2016-Jun-01 03:09N 56°52' E 011°47'813.1
2016-Jun-01 02:34N 56°59' E 011°43'1313.2
2016-Jun-01 01:34N 57°11' E 011°34'1313.0
2016-Jun-01 00:33N 57°24' E 011°26'1212.3
2016-May-31 23:34N 57°33' E 011°12'1212.3
2016-May-31 22:34N 57°39' E 010°51'6 5.9
2016-May-31 21:33N 57°40' E 010°40'0 0.0
2016-May-31 20:33N 57°40' E 010°40'0 0.0
2016-May-31 19:33N 57°40' E 010°40'0 0.0
2016-May-31 18:33N 57°40' E 010°40'0 0.0
2016-May-31 17:33N 57°40' E 010°40'0 0.1
2016-May-31 16:06N 57°39' E 010°40'0 0.1
2016-May-31 15:27N 57°39' E 010°40'0 0.1
2016-May-31 14:30N 57°39' E 010°40'0 0.0
2016-May-31 13:33N 57°39' E 010°40'0 0.0
2016-May-31 12:27N 57°39' E 010°40'0 0.0
2016-May-31 11:33N 57°39' E 010°40'0 0.1
2016-May-31 10:33N 57°40' E 010°40'7 7.0
2016-May-31 09:33N 57°46' E 010°45'8 8.5
2016-May-31 08:34N 57°48' E 010°29'1210.1
2016-May-31 07:20N 57°50' E 010°06'9 9.7
2016-May-31 06:23N 57°47' E 009°50'2111.4
2016-May-31 04:33N 57°36' E 009°16'1111.4
2016-May-31 03:34N 57°30' E 008°58'1411.8
2016-May-31 02:25N 57°22' E 008°37'3912.0
2016-May-30 23:10N 56°55' E 007°46'18011.3
2016-May-30 07:12N 54°24' E 004°53'2910.8
2016-May-30 04:33N 53°57' E 004°36'9211.3
2016-May-29 20:27N 52°40' E 003°14'1112.7
2016-May-29 19:33N 52°28' E 003°15'1312.6
2016-May-29 18:33N 52°16' E 003°10'1212.1
2016-May-29 17:33N 52°05' E 003°03'2311.4
2016-May-29 15:33N 51°48' E 002°38'1110.5
2016-May-29 14:33N 51°39' E 002°27'1010.0
2016-May-29 13:33N 51°32' E 002°18'9 9.5
2016-May-29 12:34N 51°23' E 002°11'9 9.2
2016-May-29 11:34N 51°15' E 002°04'10 9.7
2016-May-29 10:34N 51°09' E 001°52'10 9.6
2016-May-29 09:33N 51°02' E 001°41'1010.2
2016-May-29 08:34N 50°56' E 001°28'1111.4
2016-May-29 07:33N 50°45' E 001°23'1111.0
2016-May-29 06:32N 50°36' E 001°12'2711.5
2016-May-29 04:12N 50°25' E 000°33'812.1
2016-May-29 03:32N 50°23' E 000°21'1312.8
2016-May-29 02:33N 50°20' E 000°02'1413.7
2016-May-29 01:33N 50°16' W 000°18'1414.4
2016-May-29 00:33N 50°12' W 000°40'1414.4
2016-May-28 23:33N 50°08' W 001°02'1414.0
2016-May-28 22:33N 50°04' W 001°22'1313.3
2016-May-28 21:33N 50°02' W 001°43'1212.2
2016-May-28 20:33N 49°59' W 002°01'1211.1
2016-May-28 19:27N 49°55' W 002°19'910.6
2016-May-28 18:33N 49°52' W 002°33'1010.5
2016-May-28 17:33N 49°49' W 002°49'1210.8
2016-May-28 16:25N 49°43' W 003°05'1011.2
2016-May-28 15:33N 49°38' W 003°19'1111.4
2016-May-28 14:33N 49°33' W 003°34'1211.2
2016-May-28 13:29N 49°27' W 003°50'1311.4
2016-May-28 12:19N 49°20' W 004°08'911.6
2016-May-28 11:33N 49°16' W 004°19'1211.9
2016-May-28 10:31N 49°09' W 004°35'1212.1
2016-May-28 09:33N 49°04' W 004°51'1212.3
2016-May-28 08:33N 48°58' W 005°07'1312.7
2016-May-28 07:33N 48°52' W 005°24'1312.5
2016-May-28 06:33N 48°45' W 005°40'1212.4
2016-May-28 05:33N 48°34' W 005°49'1211.8
2016-May-28 04:33N 48°23' W 005°57'1211.5
2016-May-28 03:33N 48°13' W 006°05'1111.1
2016-May-28 02:33N 48°03' W 006°11'1111.0
2016-May-28 01:33N 47°53' W 006°19'1110.7
2016-May-28 00:33N 47°43' W 006°25'1010.2
2016-May-27 23:33N 47°34' W 006°32'1611.1
2016-May-27 22:07N 47°20' W 006°43'50812.2
2016-May-26 04:30N 39°10' W 009°50'1112.1
2016-May-26 03:33N 38°59' W 009°51'1212.2
2016-May-26 02:34N 38°47' W 009°51'1311.8
2016-May-26 01:30N 38°34' W 009°49'2311.8
2016-May-25 23:33N 38°12' W 009°50'1212.0
2016-May-25 22:33N 37°60' W 009°50'1512.3
2016-May-25 21:20N 37°45' W 009°51'1112.4
2016-May-25 20:28N 37°34' W 009°51'  
2016-May-23 16:23N 33°36' W 007°36'0 0.0
2016-May-23 15:29N 33°36' W 007°36'0 0.0
2016-May-23 14:32N 33°36' W 007°36'  
Track history (hours):
 
Tides and Currents Weather Stations Pressure Air Temp Water Temp Dewpoint Dewpoint Depression Visibility Wind Speed Wind Dir Waves Ship Positions

Sea Dolphin C

Last reported at 2016-Jun-01 06:33 UTC. Time now 2016-Jun-01 07:32 UTC.
Position N 56°13' E 011°18'.

Length 181 m; draft 6.1 m.

Type: Cargo ship. MMSI: 538004513.

Date/timePositionNaut miles runAvg speedWind from/ knotsBaromVisibWave heightAir tempDewpointWater temp
2016-Jun-01 06:33N 56°13' E 011°18'1312.9
2016-Jun-01 05:33N 56°24' E 011°29'1313.1
2016-Jun-01 04:32N 56°36' E 011°41'1611.8
2016-Jun-01 03:09N 56°52' E 011°47'813.1
2016-Jun-01 02:34N 56°59' E 011°43'1313.2
2016-Jun-01 01:34N 57°11' E 011°34'1313.0
2016-Jun-01 00:33N 57°24' E 011°26'1212.3
2016-May-31 23:34N 57°33' E 011°12'1212.3
2016-May-31 22:34N 57°39' E 010°51'6 5.9
2016-May-31 21:33N 57°40' E 010°40'0 0.0
2016-May-31 20:33N 57°40' E 010°40'0 0.0
2016-May-31 19:33N 57°40' E 010°40'0 0.0
2016-May-31 18:33N 57°40' E 010°40'0 0.0
2016-May-31 17:33N 57°40' E 010°40'0 0.1
2016-May-31 16:06N 57°39' E 010°40'0 0.1
2016-May-31 15:27N 57°39' E 010°40'0 0.1
2016-May-31 14:30N 57°39' E 010°40'0 0.0
2016-May-31 13:33N 57°39' E 010°40'0 0.0
2016-May-31 12:27N 57°39' E 010°40'0 0.0
2016-May-31 11:33N 57°39' E 010°40'0 0.1
2016-May-31 10:33N 57°40' E 010°40'7 7.0
2016-May-31 09:33N 57°46' E 010°45'8 8.5
2016-May-31 08:34N 57°48' E 010°29'1210.1
2016-May-31 07:20N 57°50' E 010°06'9 9.7
2016-May-31 06:23N 57°47' E 009°50'2111.4
2016-May-31 04:33N 57°36' E 009°16'1111.4
2016-May-31 03:34N 57°30' E 008°58'1411.8
2016-May-31 02:25N 57°22' E 008°37'3912.0
2016-May-30 23:10N 56°55' E 007°46'18011.3
2016-May-30 07:12N 54°24' E 004°53'2910.8
2016-May-30 04:33N 53°57' E 004°36'9211.3
2016-May-29 20:27N 52°40' E 003°14'1112.7
2016-May-29 19:33N 52°28' E 003°15'1312.6
2016-May-29 18:33N 52°16' E 003°10'1212.1
2016-May-29 17:33N 52°05' E 003°03'2311.4
2016-May-29 15:33N 51°48' E 002°38'1110.5
2016-May-29 14:33N 51°39' E 002°27'1010.0
2016-May-29 13:33N 51°32' E 002°18'9 9.5
2016-May-29 12:34N 51°23' E 002°11'9 9.2
2016-May-29 11:34N 51°15' E 002°04'10 9.7
2016-May-29 10:34N 51°09' E 001°52'10 9.6
2016-May-29 09:33N 51°02' E 001°41'1010.2
2016-May-29 08:34N 50°56' E 001°28'1111.4
2016-May-29 07:33N 50°45' E 001°23'1111.0
2016-May-29 06:32N 50°36' E 001°12'2711.5
2016-May-29 04:12N 50°25' E 000°33'812.1
2016-May-29 03:32N 50°23' E 000°21'1312.8
2016-May-29 02:33N 50°20' E 000°02'1413.7
2016-May-29 01:33N 50°16' W 000°18'1414.4
2016-May-29 00:33N 50°12' W 000°40'1414.4
2016-May-28 23:33N 50°08' W 001°02'1414.0
2016-May-28 22:33N 50°04' W 001°22'1313.3
2016-May-28 21:33N 50°02' W 001°43'1212.2
2016-May-28 20:33N 49°59' W 002°01'1211.1
2016-May-28 19:27N 49°55' W 002°19'910.6
2016-May-28 18:33N 49°52' W 002°33'1010.5
2016-May-28 17:33N 49°49' W 002°49'1210.8
2016-May-28 16:25N 49°43' W 003°05'1011.2
2016-May-28 15:33N 49°38' W 003°19'1111.4
2016-May-28 14:33N 49°33' W 003°34'1211.2
2016-May-28 13:29N 49°27' W 003°50'1311.4
2016-May-28 12:19N 49°20' W 004°08'911.6
2016-May-28 11:33N 49°16' W 004°19'1211.9
2016-May-28 10:31N 49°09' W 004°35'1212.1
2016-May-28 09:33N 49°04' W 004°51'1212.3
2016-May-28 08:33N 48°58' W 005°07'1312.7
2016-May-28 07:33N 48°52' W 005°24'1312.5
2016-May-28 06:33N 48°45' W 005°40'1212.4
2016-May-28 05:33N 48°34' W 005°49'1211.8
2016-May-28 04:33N 48°23' W 005°57'1211.5
2016-May-28 03:33N 48°13' W 006°05'1111.1
2016-May-28 02:33N 48°03' W 006°11'1111.0
2016-May-28 01:33N 47°53' W 006°19'1110.7
2016-May-28 00:33N 47°43' W 006°25'1010.2
2016-May-27 23:33N 47°34' W 006°32'1611.1
2016-May-27 22:07N 47°20' W 006°43'50812.2
2016-May-26 04:30N 39°10' W 009°50'1112.1
2016-May-26 03:33N 38°59' W 009°51'1212.2
2016-May-26 02:34N 38°47' W 009°51'1311.8
2016-May-26 01:30N 38°34' W 009°49'2311.8
2016-May-25 23:33N 38°12' W 009°50'1212.0
2016-May-25 22:33N 37°60' W 009°50'1512.3
2016-May-25 21:20N 37°45' W 009°51'1112.4
2016-May-25 20:28N 37°34' W 009°51'  
2016-May-23 16:23N 33°36' W 007°36'0 0.0
2016-May-23 15:29N 33°36' W 007°36'0 0.0
2016-May-23 14:32N 33°36' W 007°36'  

Dump ship's entire track history